Time;durP1;ratioP1;P1;durP2;ratioP2;P2;SDS_P1;SDS_P2;PMS_P1;PMS_P2;Temp;Humidity;BMP_temperature;BMP_pressure;BME280_temperature;BME280_humidity;BME280_pressure;Samples;Min_cycle;Max_cycle;Signal;HPM_P1;HPM_P2
2021/12/25 00:00:44;;;;;;;;;;;8.40;88.10;;;;;;5014019;28;19956;-59
2021/12/25 00:03:10;;;;;;;;;;;8.40;88.20;;;;;;5014063;28;19948;-65
2021/12/25 00:05:35;;;;;;;;;;;8.40;88.40;;;;;;5013898;28;19910;-58
2021/12/25 00:08:01;;;;;;;;;;;8.50;88.10;;;;;;5013568;28;20373;-61
2021/12/25 00:10:30;;;;;;;;;;;8.50;87.80;;;;;;5013646;28;19952;-58
2021/12/25 00:12:56;;;;;;;;;;;8.50;87.80;;;;;;5013865;28;19913;-57
2021/12/25 00:15:22;;;;;;;;;;;8.50;87.90;;;;;;4995945;28;19956;-59
2021/12/25 00:17:48;;;;;;;;;;;8.40;87.80;;;;;;5013887;28;19959;-61
2021/12/25 00:20:13;;;;;;;;;;;8.50;88.00;;;;;;5014037;28;20013;-60
2021/12/25 00:22:39;;;;;;;;;;;8.40;88.10;;;;;;5014166;28;20377;-59
2021/12/25 00:25:05;;;;;;;;;;;8.40;88.20;;;;;;5014300;28;19969;-59
2021/12/25 00:27:57;;;;;;;;;;;8.50;87.80;;;;;;5014169;28;20368;-64
2021/12/25 00:30:26;;;;;;;;;;;8.50;87.90;;;;;;5013429;28;19917;-59
2021/12/25 00:33:01;;;;;;;;;;;8.50;88.70;;;;;;5014027;28;20353;-59
2021/12/25 00:35:27;;;;;;;;;;;8.50;88.00;;;;;;5013932;28;19916;-65
2021/12/25 00:37:53;;;;;;;;;;;8.50;88.00;;;;;;5018046;28;19909;-58
2021/12/25 00:40:19;;;;;;;;;;;8.50;87.80;;;;;;5000335;28;19949;-57
2021/12/25 00:42:45;;;;;;;;;;;8.50;87.80;;;;;;5018013;28;19918;-57
2021/12/25 00:45:10;;;;;;;;;;;8.50;87.80;;;;;;5017858;28;20345;-65
2021/12/25 00:47:36;;;;;;;;;;;8.50;87.70;;;;;;5018085;28;19959;-60
2021/12/25 00:50:02;;;;;;;;;;;8.50;87.60;;;;;;5017809;28;19910;-60
2021/12/25 00:52:27;;;;;;;;;;;8.50;87.80;;;;;;5017386;28;20356;-60
2021/12/25 00:54:53;;;;;;;;;;;8.50;88.00;;;;;;5017808;28;19910;-60
2021/12/25 00:57:19;;;;;;;;;;;8.40;87.90;;;;;;5017254;28;19913;-57
2021/12/25 00:59:44;;;;;;;;;;;8.50;87.80;;;;;;5017649;28;19928;-58
2021/12/25 01:02:10;;;;;;;;;;;8.50;88.60;;;;;;5017537;28;19917;-59
2021/12/25 01:04:35;;;;;;;;;;;8.50;87.60;;;;;;5017717;28;19910;-58
2021/12/25 01:07:01;;;;;;;;;;;8.50;87.80;;;;;;5017449;28;19952;-60
2021/12/25 01:09:26;;;;;;;;;;;8.50;87.80;;;;;;5017269;28;19910;-63
2021/12/25 01:11:53;;;;;;;;;;;8.40;88.30;;;;;;5016786;28;20281;-59
2021/12/25 01:17:21;;;;;;;;;;;8.40;88.40;;;;;;5016966;28;19963;-58
2021/12/25 01:30:42;;;;;;;;;;;8.00;88.90;;;;;;5016822;28;19910;-59
2021/12/25 01:36:09;;;;;;;;;;;7.70;90.30;;;;;;5016853;28;19964;-59
2021/12/25 01:49:33;;;;;;;;;;;8.20;88.40;;;;;;5016760;28;20009;-60
2021/12/25 01:51:59;;;;;;;;;;;8.10;88.70;;;;;;5016274;28;19984;-58
2021/12/25 01:54:24;;;;;;;;;;;8.10;88.50;;;;;;5016659;28;19917;-59
2021/12/25 01:56:50;;;;;;;;;;;8.20;88.50;;;;;;5016287;28;19913;-63
2021/12/25 01:59:16;;;;;;;;;;;8.30;88.30;;;;;;5016656;28;19960;-62
2021/12/25 02:01:42;;;;;;;;;;;8.40;87.90;;;;;;5016487;28;19914;-58
2021/12/25 02:04:07;;;;;;;;;;;8.20;87.80;;;;;;5016305;28;19910;-57
2021/12/25 02:06:33;;;;;;;;;;;8.10;88.40;;;;;;5016168;28;19956;-60
2021/12/25 02:08:59;;;;;;;;;;;8.00;89.10;;;;;;5016447;28;19956;-61
2021/12/25 02:11:25;;;;;;;;;;;8.10;89.60;;;;;;5016094;28;19953;-57
2021/12/25 02:13:51;;;;;;;;;;;8.00;89.60;;;;;;5016072;28;20284;-59
2021/12/25 02:16:19;;;;;;;;;;;8.10;89.20;;;;;;5016036;28;20369;-62
2021/12/25 02:19:03;;;;;;;;;;;8.20;88.90;;;;;;5016154;28;20005;-57
2021/12/25 02:21:38;;;;;;;;;;;8.30;88.80;;;;;;5015678;28;19916;-57
2021/12/25 02:24:04;;;;;;;;;;;8.20;88.60;;;;;;5015723;28;20368;-59
2021/12/25 02:26:31;;;;;;;;;;;8.20;88.60;;;;;;5015636;28;19921;-57
2021/12/25 02:28:56;;;;;;;;;;;8.20;88.80;;;;;;5015791;28;19996;-62
2021/12/25 02:31:22;;;;;;;;;;;8.30;88.70;;;;;;4997937;28;19945;-61
2021/12/25 02:33:48;;;;;;;;;;;8.20;88.80;;;;;;5015472;28;19910;-63
2021/12/25 02:36:16;;;;;;;;;;;8.20;88.60;;;;;;5015849;28;19917;-59
2021/12/25 02:38:43;;;;;;;;;;;8.20;88.50;;;;;;4997952;28;20008;-62
2021/12/25 02:41:09;;;;;;;;;;;8.30;88.50;;;;;;4997645;28;20282;-64
2021/12/25 02:43:35;;;;;;;;;;;8.30;88.40;;;;;;5015633;28;19914;-66
2021/12/25 02:46:03;;;;;;;;;;;8.30;88.40;;;;;;5015531;28;20352;-63
2021/12/25 02:48:29;;;;;;;;;;;8.30;88.40;;;;;;5015633;28;20357;-62
2021/12/25 02:50:54;;;;;;;;;;;8.40;88.40;;;;;;5014855;28;19909;-59
2021/12/25 02:53:20;;;;;;;;;;;8.40;88.20;;;;;;5015378;28;20012;-60
2021/12/25 02:55:46;;;;;;;;;;;8.40;88.10;;;;;;5015677;28;19949;-59
2021/12/25 02:58:12;;;;;;;;;;;8.40;88.10;;;;;;5015059;28;20377;-58
2021/12/25 03:00:43;;;;;;;;;;;8.30;88.40;;;;;;4997375;28;19909;-59
2021/12/25 03:03:09;;;;;;;;;;;8.30;88.20;;;;;;5015241;28;19910;-59
2021/12/25 03:05:35;;;;;;;;;;;8.30;87.90;;;;;;5015685;28;20415;-58
2021/12/25 03:08:01;;;;;;;;;;;8.30;87.70;;;;;;5015240;28;19917;-66
2021/12/25 03:10:26;;;;;;;;;;;8.30;88.50;;;;;;5016006;28;19916;-59
2021/12/25 03:13:16;;;;;;;;;;;8.20;88.50;;;;;;5014883;28;20273;-63
2021/12/25 03:15:49;;;;;;;;;;;8.30;88.60;;;;;;5015530;28;20055;-58
2021/12/25 03:18:23;;;;;;;;;;;8.30;88.70;;;;;;5015103;28;19967;-62
2021/12/25 03:20:50;;;;;;;;;;;8.30;88.80;;;;;;5015133;28;19967;-62
2021/12/25 03:23:17;;;;;;;;;;;8.30;88.70;;;;;;5015151;28;19910;-63
2021/12/25 03:25:44;;;;;;;;;;;8.30;88.60;;;;;;5014234;28;19922;-59
2021/12/25 03:28:10;;;;;;;;;;;8.40;88.70;;;;;;5014594;28;19910;-61
2021/12/25 03:30:39;;;;;;;;;;;8.30;88.50;;;;;;5013738;28;19918;-59
2021/12/25 03:33:09;;;;;;;;;;;8.00;89.30;;;;;;5014682;28;19917;-63
2021/12/25 03:35:35;;;;;;;;;;;7.90;90.00;;;;;;5014130;28;20008;-62
2021/12/25 03:38:01;;;;;;;;;;;8.10;89.80;;;;;;5014159;28;19941;-59
2021/12/25 03:40:27;;;;;;;;;;;8.20;89.50;;;;;;5014047;28;19968;-58
2021/12/25 03:42:53;;;;;;;;;;;8.20;89.20;;;;;;5013935;28;19910;-61
2021/12/25 03:45:18;;;;;;;;;;;8.20;89.00;;;;;;5014489;28;20431;-60
2021/12/25 03:47:46;;;;;;;;;;;8.20;88.80;;;;;;5014082;28;19913;-60
2021/12/25 03:53:25;;;;;;;;;;;8.30;89.00;;;;;;5013772;28;19913;-62
2021/12/25 03:58:36;;;;;;;;;;;8.30;88.60;;;;;;5013625;28;19959;-61
2021/12/25 04:01:22;;;;;;;;;;;8.30;88.40;;;;;;5013666;28;19909;-61
2021/12/25 04:04:02;;;;;;;;;;;8.30;88.50;;;;;;5013519;28;19910;-62
2021/12/25 04:06:28;;;;;;;;;;;8.30;88.50;;;;;;5013938;28;19913;-59
2021/12/25 04:08:54;;;;;;;;;;;8.30;88.60;;;;;;5013588;28;19910;-58
2021/12/25 04:11:32;;;;;;;;;;;8.30;88.70;;;;;;5013158;28;19910;-63
2021/12/25 04:13:58;;;;;;;;;;;8.40;88.30;;;;;;5013455;28;19910;-57
2021/12/25 04:16:26;;;;;;;;;;;8.20;88.20;;;;;;5013101;28;19910;-61
2021/12/25 04:18:51;;;;;;;;;;;7.90;89.80;;;;;;5013859;28;20031;-59
2021/12/25 04:21:18;;;;;;;;;;;7.90;90.40;;;;;;5013447;28;20036;-59
2021/12/25 04:23:44;;;;;;;;;;;7.90;90.10;;;;;;5013481;28;19920;-59
2021/12/25 04:26:11;;;;;;;;;;;8.00;90.00;;;;;;4950025;28;1822499;-59
2021/12/25 04:28:58;;;;;;;;;;;8.10;89.80;;;;;;5013970;28;19917;-59
2021/12/25 04:31:32;;;;;;;;;;;8.20;89.30;;;;;;5013644;28;19972;-58
2021/12/25 04:49:12;;;;;;;;;;;8.30;88.70;;;;;;5013652;28;19916;-60
2021/12/25 05:04:13;;;;;;;;;;;8.20;88.40;;;;;;5013532;28;19916;-69
2021/12/25 05:06:39;;;;;;;;;;;8.20;88.90;;;;;;5013350;28;19916;-58
2021/12/25 05:09:05;;;;;;;;;;;8.00;89.60;;;;;;5013273;28;20344;-64
2021/12/25 05:11:30;;;;;;;;;;;7.90;89.80;;;;;;5013344;28;19918;-58
2021/12/25 05:13:56;;;;;;;;;;;8.00;90.20;;;;;;5013280;28;20393;-64
2021/12/25 05:16:22;;;;;;;;;;;8.10;90.20;;;;;;5013260;28;20281;-59
2021/12/25 05:18:49;;;;;;;;;;;8.20;89.50;;;;;;5013310;28;19918;-58
2021/12/25 05:21:15;;;;;;;;;;;8.30;89.10;;;;;;5013244;28;19914;-58
2021/12/25 05:23:40;;;;;;;;;;;8.40;88.40;;;;;;5016039;28;20369;-63
2021/12/25 05:26:06;;;;;;;;;;;8.40;88.50;;;;;;5016578;28;19932;-60
2021/12/25 05:28:40;;;;;;;;;;;8.40;88.80;;;;;;5016743;28;19917;-62
2021/12/25 05:31:06;;;;;;;;;;;8.40;88.40;;;;;;5016610;28;20411;-65
2021/12/25 05:33:32;;;;;;;;;;;8.40;88.50;;;;;;5016590;28;20385;-60
2021/12/25 05:35:58;;;;;;;;;;;8.50;88.50;;;;;;5016813;28;19913;-59
2021/12/25 05:38:24;;;;;;;;;;;8.40;88.40;;;;;;5016584;28;19920;-59
2021/12/25 05:40:49;;;;;;;;;;;8.40;88.20;;;;;;5016426;28;20370;-58
2021/12/25 05:43:15;;;;;;;;;;;8.40;88.20;;;;;;5016687;28;19940;-61
2021/12/25 05:45:41;;;;;;;;;;;8.40;88.30;;;;;;5016512;28;19910;-60
2021/12/25 05:48:07;;;;;;;;;;;8.50;88.70;;;;;;5016572;28;19909;-66
2021/12/25 05:50:33;;;;;;;;;;;8.40;88.70;;;;;;5016468;28;19965;-57
2021/12/25 05:52:59;;;;;;;;;;;8.40;88.90;;;;;;5016559;28;19918;-59
2021/12/25 05:55:24;;;;;;;;;;;8.40;88.90;;;;;;5016492;28;19921;-61
2021/12/25 05:57:50;;;;;;;;;;;8.40;88.50;;;;;;5016506;28;19956;-62
2021/12/25 06:00:16;;;;;;;;;;;8.50;88.50;;;;;;4998575;28;19980;-58
2021/12/25 06:02:43;;;;;;;;;;;8.40;88.60;;;;;;5016319;28;19933;-60
2021/12/25 06:05:08;;;;;;;;;;;8.40;88.70;;;;;;4998643;28;20281;-57
2021/12/25 06:07:34;;;;;;;;;;;8.40;88.60;;;;;;5016311;28;19909;-60
2021/12/25 06:09:59;;;;;;;;;;;8.50;88.90;;;;;;5016398;28;19909;-60
2021/12/25 06:12:26;;;;;;;;;;;8.40;89.10;;;;;;5016217;28;19909;-58
2021/12/25 06:14:53;;;;;;;;;;;8.40;88.90;;;;;;5016148;28;20350;-59
2021/12/25 06:17:19;;;;;;;;;;;8.50;88.70;;;;;;5015995;28;19909;-68
2021/12/25 06:19:44;;;;;;;;;;;8.40;88.80;;;;;;5015904;28;19921;-61
2021/12/25 06:22:10;;;;;;;;;;;8.40;88.80;;;;;;5015790;28;20305;-60
2021/12/25 06:24:36;;;;;;;;;;;8.40;88.90;;;;;;5015815;28;19921;-58
2021/12/25 06:27:01;;;;;;;;;;;8.40;88.90;;;;;;5015708;28;19956;-58
2021/12/25 06:29:27;;;;;;;;;;;8.50;88.70;;;;;;5015832;28;19909;-61
2021/12/25 06:31:53;;;;;;;;;;;8.50;88.40;;;;;;5015586;28;19920;-61
2021/12/25 06:34:19;;;;;;;;;;;8.50;88.30;;;;;;5014566;28;19917;-61
2021/12/25 06:36:45;;;;;;;;;;;8.40;88.50;;;;;;5015510;28;19992;-60
2021/12/25 06:39:15;;;;;;;;;;;8.40;88.90;;;;;;5015371;28;20464;-60
2021/12/25 06:41:42;;;;;;;;;;;8.40;88.90;;;;;;5015242;28;20384;-62
2021/12/25 06:44:07;;;;;;;;;;;8.50;88.80;;;;;;5015483;28;19996;-59
2021/12/25 06:46:33;;;;;;;;;;;8.50;88.20;;;;;;5015431;28;20402;-62
2021/12/25 06:48:59;;;;;;;;;;;8.50;87.90;;;;;;5015020;28;19913;-57
2021/12/25 06:51:24;;;;;;;;;;;8.40;88.30;;;;;;5015081;28;19909;-58
2021/12/25 06:53:50;;;;;;;;;;;8.40;88.60;;;;;;5015007;28;19917;-59
2021/12/25 06:56:15;;;;;;;;;;;8.40;88.60;;;;;;5015118;28;19914;-59
2021/12/25 06:58:41;;;;;;;;;;;8.40;88.60;;;;;;5014910;28;19922;-59
2021/12/25 07:01:06;;;;;;;;;;;8.40;88.80;;;;;;5014794;28;19910;-61
2021/12/25 07:03:32;;;;;;;;;;;8.40;89.00;;;;;;5014812;28;19910;-62
2021/12/25 07:05:58;;;;;;;;;;;8.40;89.40;;;;;;5014851;28;20277;-59
2021/12/25 07:08:24;;;;;;;;;;;8.50;89.20;;;;;;5014888;28;19913;-58
2021/12/25 07:10:49;;;;;;;;;;;8.50;89.20;;;;;;5014839;28;19971;-63
2021/12/25 07:13:19;;;;;;;;;;;8.50;89.70;;;;;;5014829;28;20004;-58
2021/12/25 07:15:45;;;;;;;;;;;8.60;88.60;;;;;;5014652;28;20366;-62
2021/12/25 07:18:11;;;;;;;;;;;8.60;88.40;;;;;;5014718;28;19959;-59
2021/12/25 07:20:37;;;;;;;;;;;8.60;88.60;;;;;;5014199;28;19913;-60
2021/12/25 07:23:02;;;;;;;;;;;8.60;88.90;;;;;;5014581;28;19920;-57
2021/12/25 07:25:29;;;;;;;;;;;8.50;89.10;;;;;;5014319;28;19929;-60
2021/12/25 07:27:55;;;;;;;;;;;8.50;88.80;;;;;;5014540;28;19913;-65
2021/12/25 07:30:21;;;;;;;;;;;8.60;88.50;;;;;;5013614;28;19914;-58
2021/12/25 07:32:47;;;;;;;;;;;8.70;88.40;;;;;;5014563;28;19910;-55
2021/12/25 07:35:12;;;;;;;;;;;9.00;89.20;;;;;;5013900;28;19910;-54
2021/12/25 07:37:38;;;;;;;;;;;9.20;86.90;;;;;;5014083;28;20354;-66
2021/12/25 07:40:04;;;;;;;;;;;9.40;85.40;;;;;;5013862;28;19917;-59
2021/12/25 07:42:30;;;;;;;;;;;9.50;84.90;;;;;;5014171;28;20274;-55
2021/12/25 07:45:02;;;;;;;;;;;9.50;84.40;;;;;;5013479;28;19913;-57
2021/12/25 07:47:28;;;;;;;;;;;9.70;83.90;;;;;;5013808;28;20419;-55
2021/12/25 07:49:56;;;;;;;;;;;9.80;83.50;;;;;;5013593;28;19913;-58
2021/12/25 07:52:22;;;;;;;;;;;10.00;82.50;;;;;;5013877;28;20415;-65
2021/12/25 07:54:48;;;;;;;;;;;10.20;81.30;;;;;;5014185;28;19914;-61
2021/12/25 07:57:13;;;;;;;;;;;10.10;81.20;;;;;;5013813;28;19992;-59
2021/12/25 07:59:39;;;;;;;;;;;9.90;81.80;;;;;;5013746;28;19917;-60
2021/12/25 08:02:04;;;;;;;;;;;9.70;83.50;;;;;;5013485;28;19909;-57
2021/12/25 08:04:30;;;;;;;;;;;9.60;84.60;;;;;;5013795;28;19909;-57
2021/12/25 08:06:56;;;;;;;;;;;9.40;84.80;;;;;;5013564;28;19917;-58
2021/12/25 08:09:28;;;;;;;;;;;9.30;85.60;;;;;;5013550;28;19960;-60
2021/12/25 08:12:01;;;;;;;;;;;9.20;86.20;;;;;;5013636;28;19913;-57
2021/12/25 08:14:27;;;;;;;;;;;9.20;86.60;;;;;;5013190;28;20400;-56
2021/12/25 08:16:53;;;;;;;;;;;9.20;86.30;;;;;;5013381;28;19917;-59
2021/12/25 08:19:20;;;;;;;;;;;9.20;86.50;;;;;;5013485;28;19942;-58
2021/12/25 08:21:45;;;;;;;;;;;9.10;86.70;;;;;;5013350;28;19910;-56
2021/12/25 08:24:11;;;;;;;;;;;9.10;86.80;;;;;;5013487;28;19920;-57
2021/12/25 08:26:37;;;;;;;;;;;9.10;86.70;;;;;;5013048;28;19968;-59
2021/12/25 08:29:02;;;;;;;;;;;9.10;86.80;;;;;;5013518;28;19910;-56
2021/12/25 08:31:28;;;;;;;;;;;9.00;86.90;;;;;;5013277;28;19909;-58
2021/12/25 08:33:53;;;;;;;;;;;9.00;87.00;;;;;;5013054;28;20007;-61
2021/12/25 08:36:19;;;;;;;;;;;9.00;87.10;;;;;;5013318;28;19910;-58
2021/12/25 08:38:44;;;;;;;;;;;9.00;87.00;;;;;;5013057;28;19913;-57
2021/12/25 08:41:10;;;;;;;;;;;9.00;87.20;;;;;;5013106;28;19909;-57
2021/12/25 08:43:45;;;;;;;;;;;9.00;87.40;;;;;;4995468;28;19916;-56
2021/12/25 08:46:16;;;;;;;;;;;9.10;87.10;;;;;;5013106;28;19942;-57
2021/12/25 08:48:41;;;;;;;;;;;9.10;87.20;;;;;;5013229;28;20004;-53
2021/12/25 08:51:07;;;;;;;;;;;9.10;87.40;;;;;;5012655;28;20341;-59
2021/12/25 08:53:33;;;;;;;;;;;9.10;87.20;;;;;;5013063;28;19910;-57
2021/12/25 08:55:58;;;;;;;;;;;9.10;87.00;;;;;;5012963;28;20005;-57
2021/12/25 08:58:30;;;;;;;;;;;9.10;86.80;;;;;;4998172;28;19957;-61
2021/12/25 09:01:00;;;;;;;;;;;9.10;87.10;;;;;;5016689;28;19964;-60
2021/12/25 09:03:26;;;;;;;;;;;9.10;87.80;;;;;;5016705;28;19914;-59
2021/12/25 09:05:53;;;;;;;;;;;9.10;87.40;;;;;;5016837;28;19909;-58
2021/12/25 09:08:18;;;;;;;;;;;9.30;87.40;;;;;;4998948;28;20366;-59
2021/12/25 09:10:44;;;;;;;;;;;9.20;87.20;;;;;;5016493;28;19948;-58
2021/12/25 09:13:09;;;;;;;;;;;8.90;88.20;;;;;;5016635;28;19916;-56
2021/12/25 09:15:35;;;;;;;;;;;8.90;88.50;;;;;;5016453;28;19955;-58
2021/12/25 09:18:01;;;;;;;;;;;9.10;88.20;;;;;;5016304;28;19921;-58
2021/12/25 09:20:26;;;;;;;;;;;9.10;88.20;;;;;;5016287;28;19914;-58
2021/12/25 09:22:52;;;;;;;;;;;9.20;88.30;;;;;;5016459;28;19996;-56
2021/12/25 09:25:17;;;;;;;;;;;9.10;87.60;;;;;;4998738;28;20017;-58
2021/12/25 09:27:43;;;;;;;;;;;9.10;87.70;;;;;;5016097;28;19916;-56
2021/12/25 09:30:10;;;;;;;;;;;9.20;87.90;;;;;;5016237;28;19910;-56
2021/12/25 09:32:35;;;;;;;;;;;9.10;88.00;;;;;;5016116;28;20301;-56
2021/12/25 09:35:01;;;;;;;;;;;9.10;88.00;;;;;;5015975;28;19960;-58
2021/12/25 09:37:28;;;;;;;;;;;9.20;87.90;;;;;;5015986;28;19949;-57
2021/12/25 09:39:54;;;;;;;;;;;9.20;87.70;;;;;;5015459;28;19917;-58
2021/12/25 09:42:23;;;;;;;;;;;9.30;87.10;;;;;;5015885;28;19909;-57
2021/12/25 09:44:48;;;;;;;;;;;9.30;86.90;;;;;;5015616;28;19992;-57
2021/12/25 09:47:14;;;;;;;;;;;9.40;87.00;;;;;;5015984;28;20004;-57
2021/12/25 09:49:39;;;;;;;;;;;9.40;86.80;;;;;;5015851;28;19910;-60
2021/12/25 09:52:05;;;;;;;;;;;9.40;87.00;;;;;;5015732;28;20412;-60
2021/12/25 09:54:31;;;;;;;;;;;9.50;87.10;;;;;;5015509;28;19936;-58
2021/12/25 09:56:58;;;;;;;;;;;9.50;87.60;;;;;;5015297;28;20285;-61
2021/12/25 09:59:24;;;;;;;;;;;9.40;87.00;;;;;;5015231;28;19922;-58
2021/12/25 10:01:53;;;;;;;;;;;9.00;88.30;;;;;;5015538;28;19916;-60
2021/12/25 10:04:40;;;;;;;;;;;9.00;89.10;;;;;;5015341;28;20319;-60
2021/12/25 10:07:12;;;;;;;;;;;8.90;89.60;;;;;;5015566;28;20462;-59
2021/12/25 10:09:38;;;;;;;;;;;8.80;90.00;;;;;;5015318;28;19913;-58
2021/12/25 10:12:07;;;;;;;;;;;8.80;90.10;;;;;;5015720;28;19916;-56
2021/12/25 10:14:32;;;;;;;;;;;8.70;89.90;;;;;;5015491;28;20358;-56
2021/12/25 10:16:58;;;;;;;;;;;8.70;90.10;;;;;;5015332;28;19959;-56
2021/12/25 10:19:27;;;;;;;;;;;8.70;90.60;;;;;;5015277;28;20285;-57
2021/12/25 10:22:05;;;;;;;;;;;8.80;90.30;;;;;;5015462;28;20064;-57
2021/12/25 10:24:37;;;;;;;;;;;8.90;90.10;;;;;;5015433;28;19917;-56
2021/12/25 10:27:10;;;;;;;;;;;8.90;90.00;;;;;;5015371;28;20326;-59
2021/12/25 10:29:35;;;;;;;;;;;8.80;90.10;;;;;;5015123;28;19960;-58
2021/12/25 10:32:13;;;;;;;;;;;8.70;90.40;;;;;;5015164;28;19984;-58
2021/12/25 10:34:39;;;;;;;;;;;8.80;90.40;;;;;;5015057;28;20336;-61
2021/12/25 10:37:08;;;;;;;;;;;8.80;90.40;;;;;;5015156;28;19956;-59
2021/12/25 10:39:34;;;;;;;;;;;8.80;90.40;;;;;;5014728;28;19917;-59
2021/12/25 10:42:16;;;;;;;;;;;8.90;90.30;;;;;;5015046;28;19913;-57
2021/12/25 10:44:54;;;;;;;;;;;9.10;90.10;;;;;;5015008;28;19957;-57
2021/12/25 10:47:21;;;;;;;;;;;9.10;89.50;;;;;;5015060;28;20000;-59
2021/12/25 10:49:48;;;;;;;;;;;9.20;89.00;;;;;;5014738;28;19909;-59
2021/12/25 10:52:19;;;;;;;;;;;9.30;88.50;;;;;;5014757;28;20266;-59
2021/12/25 10:54:49;;;;;;;;;;;9.30;88.30;;;;;;5014783;28;19915;-59
2021/12/25 10:57:30;;;;;;;;;;;9.30;88.30;;;;;;5014660;28;19916;-59
2021/12/25 10:59:56;;;;;;;;;;;9.30;88.50;;;;;;5014647;28;20270;-59
2021/12/25 11:02:48;;;;;;;;;;;9.30;88.50;;;;;;5014727;28;20388;-58
2021/12/25 11:05:25;;;;;;;;;;;9.30;88.30;;;;;;5010318;28;20003;-59
2021/12/25 11:08:00;;;;;;;;;;;9.30;88.30;;;;;;5013846;28;19953;-56
2021/12/25 11:10:25;;;;;;;;;;;9.30;88.30;;;;;;5013750;28;19933;-58
2021/12/25 11:12:51;;;;;;;;;;;9.40;88.40;;;;;;5014329;28;19913;-65
2021/12/25 11:15:20;;;;;;;;;;;9.40;88.20;;;;;;5014602;28;19964;-61
2021/12/25 11:17:50;;;;;;;;;;;9.30;88.20;;;;;;5014396;28;20380;-60
2021/12/25 11:20:22;;;;;;;;;;;9.40;88.20;;;;;;5013655;28;19921;-62
2021/12/25 11:22:50;;;;;;;;;;;9.30;88.00;;;;;;5014083;28;19924;-60
2021/12/25 11:25:16;;;;;;;;;;;9.40;88.00;;;;;;5014113;28;19928;-56
2021/12/25 11:27:42;;;;;;;;;;;9.40;87.80;;;;;;5014303;28;19913;-58
2021/12/25 11:30:07;;;;;;;;;;;9.30;87.60;;;;;;5014358;28;19909;-62
2021/12/25 11:32:33;;;;;;;;;;;9.30;87.80;;;;;;5014279;28;19909;-58
2021/12/25 11:34:59;;;;;;;;;;;9.30;88.00;;;;;;5014013;28;19918;-57
2021/12/25 11:37:25;;;;;;;;;;;9.40;87.60;;;;;;4996735;28;20314;-57
2021/12/25 11:39:53;;;;;;;;;;;9.40;87.20;;;;;;5013855;28;20023;-59
2021/12/25 11:42:19;;;;;;;;;;;9.30;87.30;;;;;;5014179;28;19917;-58
2021/12/25 11:44:49;;;;;;;;;;;9.30;87.40;;;;;;5014295;28;20284;-58
2021/12/25 11:47:33;;;;;;;;;;;9.20;87.50;;;;;;5013825;28;19910;-59
2021/12/25 11:50:00;;;;;;;;;;;9.20;88.30;;;;;;5013789;28;19913;-60
2021/12/25 11:52:31;;;;;;;;;;;9.30;88.40;;;;;;5013815;28;19909;-61
2021/12/25 11:55:23;;;;;;;;;;;9.30;88.50;;;;;;5013956;28;19913;-58
2021/12/25 12:00:42;;;;;;;;;;;9.40;88.30;;;;;;4985958;28;20333;-60
2021/12/25 12:03:08;;;;;;;;;;;9.50;87.60;;;;;;5013905;28;19913;-62
2021/12/25 12:05:34;;;;;;;;;;;9.40;87.80;;;;;;5013758;28;19917;-58
2021/12/25 12:08:04;;;;;;;;;;;9.20;89.20;;;;;;5013700;28;19909;-58
2021/12/25 12:10:42;;;;;;;;;;;9.10;90.00;;;;;;5013719;28;20305;-59
2021/12/25 12:13:14;;;;;;;;;;;9.00;90.00;;;;;;5013738;28;19916;-60
2021/12/25 12:15:44;;;;;;;;;;;8.90;90.40;;;;;;5013501;28;19956;-58
2021/12/25 12:18:22;;;;;;;;;;;9.00;90.50;;;;;;5013461;28;19972;-58
2021/12/25 12:20:48;;;;;;;;;;;9.10;90.30;;;;;;5013305;28;20403;-57
2021/12/25 12:24:42;;;;;;;;;;;9.10;90.10;;;;;;5013698;28;19909;-58
2021/12/25 12:26:43;;;;;;;;;;;9.20;90.00;;;;;;5000267;28;19984;-57
2021/12/25 12:29:08;;;;;;;;;;;9.30;89.50;;;;;;5013453;28;19916;-59
2021/12/25 12:31:38;;;;;;;;;;;9.40;88.90;;;;;;5015096;28;20347;-60
2021/12/25 12:34:22;;;;;;;;;;;9.50;88.60;;;;;;5017591;28;19945;-58
2021/12/25 12:36:48;;;;;;;;;;;9.50;88.80;;;;;;5017422;28;19916;-57
2021/12/25 12:39:15;;;;;;;;;;;9.50;88.20;;;;;;5017405;28;19937;-61
2021/12/25 12:41:49;;;;;;;;;;;9.60;88.20;;;;;;5017489;28;20381;-58
2021/12/25 12:44:16;;;;;;;;;;;9.60;88.20;;;;;;5017472;28;20366;-59
2021/12/25 12:46:47;;;;;;;;;;;9.50;88.50;;;;;;5017170;28;19914;-58
2021/12/25 12:49:14;;;;;;;;;;;9.40;89.00;;;;;;5017093;28;19995;-59
2021/12/25 12:51:39;;;;;;;;;;;9.40;89.10;;;;;;5017168;28;19910;-59
2021/12/25 12:54:05;;;;;;;;;;;9.40;88.90;;;;;;5016906;28;19909;-58
2021/12/25 12:56:31;;;;;;;;;;;9.20;90.00;;;;;;5017256;28;19920;-59
2021/12/25 12:58:57;;;;;;;;;;;9.10;90.30;;;;;;5017195;28;20012;-58
2021/12/25 13:01:23;;;;;;;;;;;9.00;90.30;;;;;;5016996;28;19910;-58
2021/12/25 13:03:59;;;;;;;;;;;9.10;90.30;;;;;;5017086;28;20377;-59
2021/12/25 13:06:26;;;;;;;;;;;9.20;90.20;;;;;;5016729;28;20281;-59
2021/12/25 13:08:52;;;;;;;;;;;9.20;90.10;;;;;;5016785;28;19910;-59
2021/12/25 13:11:26;;;;;;;;;;;9.30;90.00;;;;;;5016823;28;19910;-60
2021/12/25 13:13:54;;;;;;;;;;;9.30;89.80;;;;;;5016802;28;20045;-57
2021/12/25 13:16:23;;;;;;;;;;;9.30;89.70;;;;;;5016906;28;19916;-57
2021/12/25 13:18:51;;;;;;;;;;;9.40;89.90;;;;;;5016875;28;19924;-59
2021/12/25 13:21:24;;;;;;;;;;;9.40;89.40;;;;;;5016593;28;19998;-59
2021/12/25 13:23:54;;;;;;;;;;;9.50;89.30;;;;;;5016594;28;19914;-56
2021/12/25 13:26:21;;;;;;;;;;;9.50;88.90;;;;;;5016541;28;19926;-57
2021/12/25 13:28:48;;;;;;;;;;;9.60;88.70;;;;;;5016626;28;19949;-57
2021/12/25 13:31:16;;;;;;;;;;;9.70;88.30;;;;;;5016350;28;19916;-57
2021/12/25 13:33:44;;;;;;;;;;;9.70;87.90;;;;;;5016499;28;19913;-57
2021/12/25 13:36:11;;;;;;;;;;;9.70;87.70;;;;;;5016699;28;19909;-59
2021/12/25 13:38:46;;;;;;;;;;;9.70;87.90;;;;;;5016466;28;19913;-59
2021/12/25 13:41:11;;;;;;;;;;;9.70;87.90;;;;;;5016186;28;20313;-58
2021/12/25 13:43:37;;;;;;;;;;;9.70;88.20;;;;;;5015782;28;19910;-57
2021/12/25 13:46:03;;;;;;;;;;;9.60;88.30;;;;;;5016065;28;19924;-55
2021/12/25 13:48:35;;;;;;;;;;;9.60;88.40;;;;;;5016255;28;19916;-58
2021/12/25 13:51:02;;;;;;;;;;;9.60;88.60;;;;;;5015856;28;19913;-60
2021/12/25 13:53:29;;;;;;;;;;;9.60;88.50;;;;;;5016255;28;19916;-59
2021/12/25 13:55:54;;;;;;;;;;;9.60;88.50;;;;;;5016061;28;19910;-59
2021/12/25 13:58:20;;;;;;;;;;;9.60;88.50;;;;;;5015720;28;19917;-58
2021/12/25 14:00:48;;;;;;;;;;;9.60;88.50;;;;;;5015890;28;20388;-56
2021/12/25 14:03:16;;;;;;;;;;;9.70;88.50;;;;;;5015869;28;20342;-59
2021/12/25 14:05:43;;;;;;;;;;;9.70;88.20;;;;;;5015893;28;20003;-58
2021/12/25 14:08:10;;;;;;;;;;;9.70;88.30;;;;;;5015931;28;19916;-58
2021/12/25 14:10:38;;;;;;;;;;;9.70;88.50;;;;;;5015591;28;19917;-58
2021/12/25 14:13:09;;;;;;;;;;;9.70;88.20;;;;;;5015810;28;19920;-57
2021/12/25 14:15:35;;;;;;;;;;;9.70;88.50;;;;;;5015668;28;19917;-59
2021/12/25 14:18:02;;;;;;;;;;;9.70;89.00;;;;;;5015758;28;19914;-57
2021/12/25 14:20:29;;;;;;;;;;;9.70;89.30;;;;;;5015718;28;19917;-57
2021/12/25 14:23:02;;;;;;;;;;;9.50;90.00;;;;;;5015609;28;20385;-56
2021/12/25 14:25:30;;;;;;;;;;;9.30;90.40;;;;;;5015412;28;20289;-57
2021/12/25 14:28:02;;;;;;;;;;;9.30;90.50;;;;;;5015535;28;19917;-56
2021/12/25 14:30:27;;;;;;;;;;;9.40;90.20;;;;;;5015460;28;19921;-58
2021/12/25 14:32:53;;;;;;;;;;;9.50;90.00;;;;;;5015512;28;19909;-57
2021/12/25 14:35:20;;;;;;;;;;;9.60;90.00;;;;;;5015312;28;19937;-59
2021/12/25 14:37:46;;;;;;;;;;;9.60;89.90;;;;;;5015219;28;20000;-57
2021/12/25 14:40:13;;;;;;;;;;;9.60;89.80;;;;;;5015022;28;19960;-56
2021/12/25 14:42:46;;;;;;;;;;;9.70;89.60;;;;;;5015475;28;19910;-58
2021/12/25 14:45:13;;;;;;;;;;;9.70;89.70;;;;;;4997559;28;20399;-57
2021/12/25 14:47:46;;;;;;;;;;;9.70;89.90;;;;;;5015222;28;19909;-57
2021/12/25 14:50:13;;;;;;;;;;;9.70;89.70;;;;;;5014772;28;20003;-57
2021/12/25 14:52:39;;;;;;;;;;;9.60;89.70;;;;;;5014800;28;20377;-57
2021/12/25 14:55:17;;;;;;;;;;;9.60;89.80;;;;;;5013996;28;19948;-59
2021/12/25 14:57:43;;;;;;;;;;;9.60;90.00;;;;;;5015378;28;19909;-57
2021/12/25 15:00:09;;;;;;;;;;;9.70;89.80;;;;;;5014756;28;20012;-57
2021/12/25 15:02:34;;;;;;;;;;;9.70;89.40;;;;;;5014761;28;20067;-57
2021/12/25 15:05:00;;;;;;;;;;;9.70;89.70;;;;;;5014688;28;20021;-57
2021/12/25 15:07:25;;;;;;;;;;;9.70;89.80;;;;;;5014486;28;19916;-57
2021/12/25 15:09:53;;;;;;;;;;;9.70;89.70;;;;;;5014497;28;19949;-57
2021/12/25 15:12:26;;;;;;;;;;;9.70;89.70;;;;;;5014720;28;19910;-57
2021/12/25 15:15:08;;;;;;;;;;;9.70;89.70;;;;;;5014598;28;19952;-56
2021/12/25 15:17:34;;;;;;;;;;;9.70;89.60;;;;;;5014512;28;19972;-57
2021/12/25 15:20:08;;;;;;;;;;;9.80;90.10;;;;;;5014301;28;19929;-57
2021/12/25 15:22:35;;;;;;;;;;;9.70;89.90;;;;;;5014469;28;19936;-58
2021/12/25 15:25:03;;;;;;;;;;;9.70;90.00;;;;;;5014401;28;20376;-57
2021/12/25 15:27:31;;;;;;;;;;;9.70;90.10;;;;;;5014575;28;20433;-56
2021/12/25 15:29:59;;;;;;;;;;;9.70;90.00;;;;;;5014081;28;19916;-57
2021/12/25 15:32:30;;;;;;;;;;;9.70;90.10;;;;;;4996884;28;19909;-58
2021/12/25 15:34:57;;;;;;;;;;;9.80;90.00;;;;;;5014132;28;19910;-57
2021/12/25 15:37:24;;;;;;;;;;;9.80;89.80;;;;;;5014202;28;19941;-56
2021/12/25 15:39:50;;;;;;;;;;;9.70;90.00;;;;;;5014117;28;19917;-57